Time;durP1;ratioP1;P1;durP2;ratioP2;P2;SDS_P1;SDS_P2;PMS_P1;PMS_P2;Temp;Humidity;BMP_temperature;BMP_pressure;BME280_temperature;BME280_humidity;BME280_pressure;Samples;Min_cycle;Max_cycle;Signal;HPM_P1;HPM_P2
2021/04/07 00:01:43;;;;;;;0.93;0.90;;;2.20;99.90;;;;;;5064892;28;20701;-87
2021/04/07 00:04:09;;;;;;;0.30;0.30;;;2.10;99.90;;;;;;5066950;28;20228;-86
2021/04/07 00:06:35;;;;;;;0.30;0.30;;;2.00;99.90;;;;;;5048871;28;20240;-88
2021/04/07 00:09:02;;;;;;;0.50;0.50;;;2.00;99.90;;;;;;5050793;28;20232;-86
2021/04/07 00:11:28;;;;;;;0.30;0.30;;;1.90;99.90;;;;;;5039529;28;20287;-87
2021/04/07 00:13:55;;;;;;;0.40;0.40;;;1.90;99.90;;;;;;5071303;28;20264;-87
2021/04/07 00:16:21;;;;;;;0.83;0.83;;;1.90;99.90;;;;;;5066819;28;20246;-87
2021/04/07 00:18:47;;;;;;;2.10;1.33;;;1.80;99.90;;;;;;5037606;28;20220;-88
2021/04/07 00:21:13;;;;;;;0.43;0.43;;;1.80;99.90;;;;;;5058764;28;20213;-86
2021/04/07 00:23:39;;;;;;;0.40;0.40;;;1.80;99.90;;;;;;5037454;28;20191;-85
2021/04/07 00:26:04;;;;;;;0.37;0.37;;;1.80;99.90;;;;;;5039950;28;20212;-87
2021/04/07 00:28:30;;;;;;;0.60;0.60;;;1.90;99.90;;;;;;5055478;28;20354;-87
2021/04/07 00:30:57;;;;;;;0.30;0.30;;;1.90;99.90;;;;;;5039391;28;20221;-88
2021/04/07 00:33:23;;;;;;;0.30;0.30;;;2.00;99.90;;;;;;5039329;28;20209;-87
2021/04/07 00:35:49;;;;;;;12.10;3.03;;;2.00;99.90;;;;;;5022363;28;20239;-89
2021/04/07 00:38:14;;;;;;;0.63;0.47;;;2.00;99.90;;;;;;5040488;28;20193;-88
2021/04/07 00:40:40;;;;;;;0.30;0.30;;;2.00;99.90;;;;;;5040393;28;20346;-86
2021/04/07 00:43:06;;;;;;;0.27;0.27;;;2.00;99.90;;;;;;5037731;28;20273;-88
2021/04/07 00:45:32;;;;;;;0.97;0.97;;;1.90;99.90;;;;;;5057685;28;20219;-87
2021/04/07 00:47:58;;;;;;;0.33;0.33;;;1.90;99.90;;;;;;5038281;28;20569;-85
2021/04/07 00:50:26;;;;;;;0.30;0.30;;;1.90;99.90;;;;;;5058823;28;20268;-87
2021/04/07 00:52:53;;;;;;;0.30;0.30;;;1.80;99.90;;;;;;5056057;28;21072;-89
2021/04/07 00:55:22;;;;;;;0.27;0.27;;;1.90;99.90;;;;;;5038589;28;20216;-87
2021/04/07 00:57:50;;;;;;;0.50;0.50;;;1.90;99.90;;;;;;5057941;28;20220;-87
2021/04/07 01:00:17;;;;;;;0.67;0.67;;;1.90;99.90;;;;;;5054131;28;20299;-84
2021/04/07 01:02:44;;;;;;;0.33;0.33;;;1.90;99.90;;;;;;5057003;28;20197;-88
2021/04/07 01:05:10;;;;;;;8.27;1.27;;;2.00;99.90;;;;;;5057759;28;20189;-88
2021/04/07 01:07:36;;;;;;;0.37;0.37;;;2.00;99.90;;;;;;5055290;28;20225;-87
2021/04/07 01:10:08;;;;;;;1.47;1.47;;;2.00;99.90;;;;;;5037179;28;20233;-86
2021/04/07 01:12:34;;;;;;;0.30;0.30;;;2.10;99.90;;;;;;5055833;28;20256;-87
2021/04/07 01:15:00;;;;;;;0.33;0.33;;;2.20;99.90;;;;;;5055429;28;20232;-89
2021/04/07 01:17:27;;;;;;;2.37;1.10;;;2.30;99.90;;;;;;5040392;28;20181;-86
2021/04/07 01:19:52;;;;;;;0.53;0.53;;;2.30;99.90;;;;;;5054450;28;20216;-89
2021/04/07 01:22:21;;;;;;;0.30;0.30;;;2.40;99.90;;;;;;5022716;28;20217;-88
2021/04/07 01:24:47;;;;;;;0.50;0.50;;;2.50;99.90;;;;;;5074176;28;20235;-89
2021/04/07 01:27:14;;;;;;;0.30;0.30;;;2.40;99.90;;;;;;5037526;28;20777;-86
2021/04/07 01:29:40;;;;;;;0.33;0.33;;;2.20;99.90;;;;;;5053102;28;20222;-87
2021/04/07 01:32:06;;;;;;;0.30;0.30;;;2.00;99.90;;;;;;5053845;28;20193;-87
2021/04/07 01:34:33;;;;;;;0.37;0.37;;;2.00;99.90;;;;;;5053879;28;20347;-88
2021/04/07 01:37:00;;;;;;;0.40;0.40;;;2.00;99.90;;;;;;5067763;28;20308;-90
2021/04/07 01:39:28;;;;;;;0.30;0.30;;;2.00;99.90;;;;;;5069534;28;20502;-90
2021/04/07 01:41:54;;;;;;;0.33;0.33;;;2.00;99.90;;;;;;5034418;28;20219;-88
2021/04/07 01:44:23;;;;;;;3.60;1.17;;;2.00;99.90;;;;;;5034356;28;20197;-88
2021/04/07 01:46:49;;;;;;;0.30;0.30;;;2.00;99.90;;;;;;5069069;28;20216;-89
2021/04/07 01:49:15;;;;;;;0.20;0.20;;;2.00;99.90;;;;;;5055315;28;21145;-88
2021/04/07 01:51:42;;;;;;;0.47;0.47;;;2.10;99.90;;;;;;5075667;28;20223;-89
2021/04/07 01:54:10;;;;;;;0.57;0.57;;;2.10;99.90;;;;;;5065621;28;20209;-88
2021/04/07 01:57:07;;;;;;;0.80;0.70;;;2.20;99.90;;;;;;5071386;28;20588;-89
2021/04/07 01:59:33;;;;;;;0.60;0.30;;;2.40;99.90;;;;;;5042588;28;20215;-88
2021/04/07 02:01:59;;;;;;;0.33;0.33;;;2.50;99.90;;;;;;5023090;28;20184;-89
2021/04/07 02:04:26;;;;;;;0.30;0.30;;;2.70;99.90;;;;;;5069436;28;20217;-88
2021/04/07 02:06:52;;;;;;;0.43;0.37;;;2.80;99.90;;;;;;5035520;28;20470;-89
2021/04/07 02:09:20;;;;;;;4.80;1.80;;;2.80;99.90;;;;;;5071835;28;20236;-86
2021/04/07 02:11:48;;;;;;;3.87;1.03;;;3.00;99.90;;;;;;5055616;28;20259;-88
2021/04/07 02:14:18;;;;;;;0.20;0.20;;;3.00;99.90;;;;;;5057446;28;20215;-89
2021/04/07 02:16:58;;;;;;;1.03;1.03;;;3.10;99.90;;;;;;5071558;28;20300;-90
2021/04/07 02:19:26;;;;;;;0.20;0.20;;;3.20;99.90;;;;;;5039259;28;20294;-91
2021/04/07 02:22:11;;;;;;;1.40;1.33;;;3.10;99.90;;;;;;5053368;28;20295;-88
2021/04/07 02:24:38;;;;;;;0.20;0.20;;;3.20;99.90;;;;;;5055247;28;20269;-88
2021/04/07 02:27:19;;;;;;;0.27;0.27;;;3.10;99.90;;;;;;5020139;28;20213;-87
2021/04/07 02:29:51;;;;;;;0.30;0.30;;;3.00;99.90;;;;;;5071604;28;20204;-87
2021/04/07 02:32:17;;;;;;;0.20;0.20;;;2.90;99.90;;;;;;5073333;28;20189;-90
2021/04/07 02:34:43;;;;;;;0.30;0.30;;;2.90;99.90;;;;;;5034992;28;20220;-88
2021/04/07 02:37:09;;;;;;;0.20;0.20;;;2.90;99.90;;;;;;5070222;28;20308;-86
2021/04/07 02:39:36;;;;;;;0.20;0.20;;;3.00;99.90;;;;;;5073078;28;20250;-88
2021/04/07 02:42:02;;;;;;;0.23;0.23;;;3.00;99.90;;;;;;5070542;28;20269;-84
2021/04/07 02:44:27;;;;;;;0.20;0.20;;;3.00;99.90;;;;;;5054010;28;20199;-84
2021/04/07 02:46:53;;;;;;;0.30;0.30;;;3.00;99.90;;;;;;5021616;28;20541;-88
2021/04/07 02:49:19;;;;;;;0.50;0.50;;;3.10;99.90;;;;;;5036264;28;20361;-87
2021/04/07 02:51:46;;;;;;;0.20;0.20;;;3.10;99.90;;;;;;5072853;28;20208;-89
2021/04/07 02:54:12;;;;;;;5.60;0.50;;;3.10;99.90;;;;;;5045699;28;20266;-88
2021/04/07 02:56:38;;;;;;;1.17;1.17;;;3.10;99.90;;;;;;5072167;28;20181;-88
2021/04/07 02:59:04;;;;;;;0.60;0.40;;;3.20;99.90;;;;;;5039413;28;20192;-87
2021/04/07 03:01:30;;;;;;;0.20;0.20;;;3.20;99.90;;;;;;5053114;28;21223;-87
2021/04/07 03:03:56;;;;;;;0.20;0.20;;;3.20;99.90;;;;;;5038328;28;20312;-87
2021/04/07 03:06:21;;;;;;;0.63;0.53;;;3.20;99.90;;;;;;5049968;28;20244;-89
2021/04/07 03:08:48;;;;;;;0.80;0.60;;;3.20;99.90;;;;;;5043307;28;20295;-88
2021/04/07 03:11:15;;;;;;;0.20;0.20;;;3.20;99.90;;;;;;5039316;28;20741;-87
2021/04/07 03:13:41;;;;;;;0.73;0.73;;;3.20;99.90;;;;;;5036840;28;20686;-87
2021/04/07 03:16:06;;;;;;;0.30;0.30;;;3.30;99.90;;;;;;5053294;28;20229;-86
2021/04/07 03:18:32;;;;;;;0.53;0.53;;;3.40;99.90;;;;;;5051760;28;20238;-89
2021/04/07 03:20:58;;;;;;;0.20;0.20;;;3.40;99.90;;;;;;5070006;28;20209;-86
2021/04/07 03:23:24;;;;;;;0.20;0.20;;;3.40;99.90;;;;;;5055129;28;20499;-89
2021/04/07 03:25:50;;;;;;;0.20;0.20;;;3.40;99.90;;;;;;5070664;28;20235;-88
2021/04/07 03:28:17;;;;;;;0.40;0.40;;;3.50;99.90;;;;;;5050900;28;20220;-87
2021/04/07 03:30:52;;;;;;;0.20;0.20;;;3.50;99.90;;;;;;5053329;28;20229;-89
2021/04/07 03:33:24;;;;;;;0.50;0.50;;;3.60;99.90;;;;;;5039805;28;20227;-87
2021/04/07 03:35:51;;;;;;;0.20;0.20;;;3.60;99.90;;;;;;5053663;28;20220;-89
2021/04/07 03:38:18;;;;;;;0.47;0.47;;;3.60;99.90;;;;;;5055225;28;20719;-88
2021/04/07 03:40:45;;;;;;;0.40;0.40;;;3.60;99.90;;;;;;5053073;28;20576;-88
2021/04/07 03:43:21;;;;;;;0.53;0.43;;;3.70;99.90;;;;;;5052855;28;20220;-87
2021/04/07 03:45:49;;;;;;;1.17;1.07;;;3.80;99.90;;;;;;5052068;28;20251;-89
2021/04/07 03:48:18;;;;;;;0.60;0.60;;;3.80;99.90;;;;;;5053807;28;20278;-88
2021/04/07 03:50:45;;;;;;;12.90;1.47;;;3.80;99.90;;;;;;5070866;28;20255;-88
2021/04/07 03:53:12;;;;;;;0.40;0.40;;;3.90;99.90;;;;;;5037142;28;20640;-87
2021/04/07 03:55:38;;;;;;;0.53;0.53;;;3.90;99.90;;;;;;5055069;28;20228;-87
2021/04/07 03:58:05;;;;;;;1.23;1.23;;;3.90;99.90;;;;;;5056029;28;20278;-86
2021/04/07 04:00:30;;;;;;;0.43;0.37;;;4.00;99.90;;;;;;5055262;28;20244;-87
2021/04/07 04:02:56;;;;;;;11.47;1.07;;;3.90;99.90;;;;;;5040881;28;20265;-89
2021/04/07 04:05:22;;;;;;;1.63;1.20;;;4.00;99.90;;;;;;5060276;28;20241;-88
2021/04/07 04:07:48;;;;;;;2.00;1.07;;;4.00;99.90;;;;;;5042006;28;21655;-87
2021/04/07 04:10:15;;;;;;;0.33;0.33;;;4.00;99.90;;;;;;5042976;28;20247;-88
2021/04/07 04:12:41;;;;;;;0.23;0.23;;;4.10;99.90;;;;;;5043525;28;20220;-86
2021/04/07 04:15:09;;;;;;;0.77;0.77;;;4.20;99.90;;;;;;5058991;28;20324;-88
2021/04/07 04:17:39;;;;;;;0.40;0.40;;;4.20;99.90;;;;;;5057763;28;20965;-88
2021/04/07 04:20:06;;;;;;;1.17;1.07;;;4.20;99.90;;;;;;5058832;28;20181;-86
2021/04/07 04:22:32;;;;;;;0.67;0.53;;;4.30;99.90;;;;;;5040185;28;20308;-89
2021/04/07 04:24:58;;;;;;;1.63;1.53;;;4.40;99.90;;;;;;5054076;28;20213;-89
2021/04/07 04:27:23;;;;;;;2.67;1.23;;;4.40;99.90;;;;;;5035513;28;20224;-90
2021/04/07 04:29:49;;;;;;;1.17;0.80;;;4.40;99.90;;;;;;5022618;28;20755;-88
2021/04/07 04:32:15;;;;;;;1.07;1.00;;;4.40;99.90;;;;;;5059246;28;20208;-88
2021/04/07 04:34:41;;;;;;;0.30;0.30;;;4.50;99.90;;;;;;5024346;28;20303;-87
2021/04/07 04:37:07;;;;;;;0.40;0.40;;;4.50;99.90;;;;;;5020192;28;20236;-86
2021/04/07 04:39:32;;;;;;;2.93;1.67;;;4.60;99.90;;;;;;5053466;28;20209;-87
2021/04/07 04:41:58;;;;;;;1.37;1.20;;;4.50;99.90;;;;;;5062305;28;20630;-89
2021/04/07 04:44:24;;;;;;;1.07;1.07;;;4.40;99.90;;;;;;5055535;28;21289;-89
2021/04/07 04:46:50;;;;;;;0.23;0.23;;;4.40;99.90;;;;;;5039342;28;20213;-87
2021/04/07 04:49:16;;;;;;;0.40;0.40;;;4.40;99.90;;;;;;5054831;28;20599;-91
2021/04/07 04:51:41;;;;;;;2.73;1.00;;;4.60;99.90;;;;;;5037514;28;20252;-87
2021/04/07 04:54:07;;;;;;;0.20;0.20;;;4.70;99.90;;;;;;5023796;28;20586;-89
2021/04/07 04:56:33;;;;;;;0.53;0.53;;;4.80;99.90;;;;;;5050947;28;20189;-90
2021/04/07 04:58:59;;;;;;;0.20;0.20;;;4.80;99.90;;;;;;5075728;28;20704;-90
2021/04/07 05:01:24;;;;;;;0.30;0.30;;;4.80;99.90;;;;;;5024342;28;20220;-88
2021/04/07 05:03:50;;;;;;;0.40;0.30;;;4.80;99.90;;;;;;5038563;28;20244;-89
2021/04/07 05:06:16;;;;;;;0.20;0.20;;;4.80;99.90;;;;;;5039846;28;20730;-89
2021/04/07 05:08:45;;;;;;;0.97;0.87;;;4.70;99.90;;;;;;5054710;28;20252;-87
2021/04/07 05:11:11;;;;;;;0.30;0.30;;;4.60;99.90;;;;;;5040778;28;20799;-88
2021/04/07 05:13:37;;;;;;;0.50;0.50;;;4.60;99.90;;;;;;5034157;28;20216;-89
2021/04/07 05:16:03;;;;;;;0.60;0.60;;;4.60;99.90;;;;;;5055330;28;20220;-89
2021/04/07 05:18:29;;;;;;;0.30;0.30;;;4.70;99.90;;;;;;5073461;28;20336;-89
2021/04/07 05:20:54;;;;;;;3.97;0.67;;;4.90;99.90;;;;;;5021268;28;20232;-89
2021/04/07 05:23:20;;;;;;;8.10;1.23;;;5.10;99.90;;;;;;5054957;28;20193;-88
2021/04/07 05:25:46;;;;;;;0.30;0.30;;;5.20;99.90;;;;;;5021682;28;20213;-90
2021/04/07 05:28:12;;;;;;;0.50;0.50;;;5.10;99.90;;;;;;5054095;28;20240;-86
2021/04/07 05:33:23;;;;;;;0.83;0.83;;;5.00;99.90;;;;;;5074650;28;20329;-90
2021/04/07 05:35:53;;;;;;;0.50;0.50;;;5.10;99.90;;;;;;5073957;28;20217;-89
2021/04/07 05:38:21;;;;;;;0.63;0.63;;;5.40;99.90;;;;;;5056751;28;20180;-90
2021/04/07 05:40:47;;;;;;;1.27;1.20;;;5.70;99.90;;;;;;5037269;28;20579;-89
2021/04/07 05:43:13;;;;;;;0.20;0.20;;;5.90;99.90;;;;;;5037340;28;20209;-88
2021/04/07 05:45:39;;;;;;;0.27;0.27;;;5.90;99.90;;;;;;5038732;28;20897;-88
2021/04/07 05:48:07;;;;;;;0.57;0.57;;;6.10;99.90;;;;;;5036168;28;20220;-88
2021/04/07 05:50:36;;;;;;;0.30;0.30;;;6.00;99.90;;;;;;5037716;28;20193;-90
2021/04/07 05:53:01;;;;;;;0.30;0.30;;;6.20;99.90;;;;;;5056938;28;21242;-90
2021/04/07 05:55:27;;;;;;;1.43;0.27;;;6.60;99.90;;;;;;5036837;28;20327;-90
2021/04/07 05:58:00;;;;;;;0.20;0.20;;;6.90;99.90;;;;;;5022273;28;20236;-87
2021/04/07 06:00:27;;;;;;;0.30;0.30;;;6.80;99.90;;;;;;5050735;28;20217;-87
2021/04/07 06:02:57;;;;;;;5.63;1.40;;;7.10;99.90;;;;;;5036066;28;20735;-91
2021/04/07 06:05:23;;;;;;;9.03;0.70;;;6.70;99.90;;;;;;5073644;28;20715;-87
2021/04/07 06:07:50;;;;;;;1.70;1.60;;;6.30;99.90;;;;;;5054266;28;20291;-88
2021/04/07 06:10:16;;;;;;;0.40;0.40;;;6.10;99.90;;;;;;5034915;28;20236;-92
2021/04/07 06:12:42;;;;;;;5.93;2.33;;;6.10;99.90;;;;;;5051825;28;20224;-88
2021/04/07 06:15:10;;;;;;;1.50;1.13;;;6.20;99.90;;;;;;5057051;28;20216;-88
2021/04/07 06:17:37;;;;;;;1.37;1.27;;;6.00;99.90;;;;;;5053253;28;20267;-87
2021/04/07 06:20:08;;;;;;;6.80;0.93;;;5.90;99.90;;;;;;5051179;28;20412;-89
2021/04/07 06:22:34;;;;;;;0.23;0.23;;;5.90;99.90;;;;;;5045335;28;20217;-90
2021/04/07 06:25:00;;;;;;;0.43;0.43;;;6.10;99.90;;;;;;5048632;28;20692;-88
2021/04/07 06:27:26;;;;;;;0.87;0.63;;;6.20;99.90;;;;;;5047042;28;20227;-90
2021/04/07 06:29:52;;;;;;;0.63;0.63;;;5.80;99.90;;;;;;5072772;28;21270;-87
2021/04/07 06:32:18;;;;;;;0.60;0.60;;;5.30;99.90;;;;;;5041653;28;20185;-89
2021/04/07 06:34:44;;;;;;;0.20;0.20;;;5.10;99.90;;;;;;5021417;28;20765;-87
2021/04/07 06:37:10;;;;;;;2.67;0.47;;;4.80;99.90;;;;;;5054370;28;20299;-88
2021/04/07 06:39:35;;;;;;;0.20;0.20;;;4.80;99.90;;;;;;5037883;28;20217;-90
2021/04/07 06:42:01;;;;;;;0.30;0.30;;;4.90;99.90;;;;;;5020794;28;20231;-90
2021/04/07 06:44:27;;;;;;;0.30;0.30;;;4.90;99.90;;;;;;5055848;28;20176;-84
2021/04/07 06:46:55;;;;;;;0.40;0.40;;;5.00;99.90;;;;;;5055854;28;20204;-92
2021/04/07 06:49:23;;;;;;;3.63;0.50;;;5.00;99.90;;;;;;5049168;28;20236;-90
2021/04/07 06:51:52;;;;;;;0.30;0.30;;;5.10;99.90;;;;;;5067916;28;20228;-88
2021/04/07 06:54:22;;;;;;;1.43;1.37;;;5.60;99.90;;;;;;5072758;28;20216;-87
2021/04/07 06:56:49;;;;;;;0.37;0.37;;;6.30;99.90;;;;;;5051931;28;20282;-86
2021/04/07 06:59:15;;;;;;;2.23;0.53;;;6.90;99.90;;;;;;5053078;28;20200;-90
2021/04/07 07:01:41;;;;;;;1.13;1.13;;;6.80;99.90;;;;;;5071782;28;20323;-90
2021/04/07 07:04:07;;;;;;;2.83;0.40;;;5.30;99.90;;;;;;5073525;28;20311;-91
2021/04/07 07:06:34;;;;;;;1.27;0.70;;;5.00;99.90;;;;;;5071927;28;20301;-93
2021/04/07 07:09:11;;;;;;;0.53;0.53;;;5.00;99.90;;;;;;5055988;28;20697;-91
2021/04/07 07:11:38;;;;;;;0.63;0.63;;;5.20;99.90;;;;;;5053556;28;20239;-90
2021/04/07 07:14:04;;;;;;;1.67;1.23;;;5.50;99.90;;;;;;5055867;28;20193;-89
2021/04/07 07:16:30;;;;;;;1.00;0.57;;;5.70;99.90;;;;;;5053428;28;20307;-90
2021/04/07 07:18:56;;;;;;;1.40;1.27;;;5.80;99.90;;;;;;5036298;28;20270;-90
2021/04/07 07:21:22;;;;;;;0.40;0.40;;;5.70;99.90;;;;;;5035971;28;21055;-89
2021/04/07 07:23:49;;;;;;;3.30;3.10;;;5.70;99.90;;;;;;5068193;28;20231;-88
2021/04/07 07:26:18;;;;;;;0.80;0.80;;;5.70;99.90;;;;;;5066497;28;20275;-90
2021/04/07 07:28:51;;;;;;;2.03;0.80;;;5.70;99.90;;;;;;5050308;28;20374;-90
2021/04/07 07:31:24;;;;;;;4.13;0.87;;;5.30;99.90;;;;;;5062981;28;20239;-90
2021/04/07 07:33:53;;;;;;;5.03;1.23;;;4.80;99.90;;;;;;5074373;28;20219;-89
2021/04/07 07:36:19;;;;;;;0.80;0.73;;;5.00;99.90;;;;;;5074336;28;20212;-88
2021/04/07 07:38:53;;;;;;;1.60;0.80;;;5.10;99.90;;;;;;5058200;28;20197;-89
2021/04/07 07:41:22;;;;;;;1.07;1.07;;;5.10;99.90;;;;;;5074991;28;20223;-91
2021/04/07 07:43:48;;;;;;;1.13;0.83;;;5.20;99.90;;;;;;5050084;28;20258;-89
2021/04/07 07:46:18;;;;;;;0.40;0.40;;;5.20;99.90;;;;;;5056646;28;20212;-91
2021/04/07 07:48:44;;;;;;;3.50;3.30;;;5.20;99.90;;;;;;5057191;28;20232;-91
2021/04/07 07:51:20;;;;;;;0.67;0.67;;;5.30;99.90;;;;;;5058403;28;20225;-93
2021/04/07 07:53:48;;;;;;;0.70;0.70;;;5.50;99.90;;;;;;5053707;28;20188;-89
2021/04/07 07:56:15;;;;;;;2.20;0.97;;;5.40;99.90;;;;;;5060776;28;20189;-90
2021/04/07 07:58:44;;;;;;;0.93;0.70;;;5.30;99.90;;;;;;5040214;28;20225;-91
2021/04/07 08:01:11;;;;;;;1.50;1.40;;;5.40;99.90;;;;;;5057056;28;20213;-90
2021/04/07 08:03:37;;;;;;;1.53;1.43;;;5.40;99.90;;;;;;5040714;28;20701;-91
2021/04/07 08:06:03;;;;;;;3.10;2.00;;;5.70;99.90;;;;;;5056175;28;20226;-90
2021/04/07 08:08:29;;;;;;;3.70;1.23;;;6.20;99.90;;;;;;5039663;28;20181;-90
2021/04/07 08:10:55;;;;;;;0.33;0.33;;;6.30;99.90;;;;;;5039608;28;20233;-92
2021/04/07 08:13:26;;;;;;;1.30;1.30;;;6.20;99.90;;;;;;5057732;28;20241;-91
2021/04/07 08:15:52;;;;;;;1.03;0.70;;;6.30;99.90;;;;;;5056692;28;20241;-91
2021/04/07 08:18:19;;;;;;;3.17;2.23;;;6.50;99.90;;;;;;5057689;28;20242;-93
2021/04/07 08:20:45;;;;;;;0.83;0.70;;;6.40;99.90;;;;;;5072647;28;20229;-91
2021/04/07 08:23:16;;;;;;;0.30;0.30;;;6.70;99.90;;;;;;5043292;28;20188;-90
2021/04/07 08:25:47;;;;;;;0.93;0.50;;;7.10;99.90;;;;;;5076867;28;20232;-90
2021/04/07 08:28:13;;;;;;;3.40;1.17;;;7.50;99.90;;;;;;5051860;28;20255;-90
2021/04/07 08:30:39;;;;;;;1.80;1.13;;;7.60;99.90;;;;;;5039075;28;20217;-91
2021/04/07 08:33:05;;;;;;;1.13;1.13;;;7.90;99.90;;;;;;5025162;28;20221;-92
2021/04/07 08:35:31;;;;;;;4.23;1.43;;;7.80;99.90;;;;;;5022411;28;20292;-89
2021/04/07 08:38:04;;;;;;;0.50;0.47;;;7.50;99.90;;;;;;5040995;28;20280;-90
2021/04/07 08:40:47;;;;;;;1.03;1.00;;;7.10;99.90;;;;;;5053179;28;20693;-89
2021/04/07 08:43:14;;;;;;;1.53;1.40;;;7.00;99.90;;;;;;5064524;28;20675;-90
2021/04/07 08:45:49;;;;;;;6.77;1.97;;;7.10;99.90;;;;;;5040043;28;20218;-89
2021/04/07 08:48:25;;;;;;;0.60;0.60;;;7.00;99.90;;;;;;5054759;28;20226;-87
2021/04/07 08:51:07;;;;;;;0.47;0.47;;;6.90;99.90;;;;;;5073501;28;21002;-89
2021/04/07 08:53:37;;;;;;;0.70;0.70;;;6.60;99.90;;;;;;5055443;28;20386;-89
2021/04/07 08:56:06;;;;;;;7.03;1.53;;;7.10;99.90;;;;;;5059046;28;20184;-82
2021/04/07 08:58:33;;;;;;;0.50;0.50;;;7.40;99.90;;;;;;5051736;28;20213;-89
2021/04/07 09:00:59;;;;;;;6.33;1.33;;;8.10;99.90;;;;;;5055135;28;20261;-86
2021/04/07 09:03:27;;;;;;;2.93;0.57;;;8.10;99.90;;;;;;5056830;28;20220;-87
2021/04/07 09:05:53;;;;;;;0.93;0.93;;;8.40;99.90;;;;;;5061467;28;20272;-89
2021/04/07 09:08:24;;;;;;;4.13;1.50;;;8.60;99.90;;;;;;5044790;28;20191;-86
2021/04/07 09:10:51;;;;;;;0.43;0.43;;;8.00;99.90;;;;;;5070216;28;20247;-88
2021/04/07 09:13:29;;;;;;;0.97;0.87;;;8.60;99.90;;;;;;5054036;28;20220;-90
2021/04/07 09:16:00;;;;;;;0.60;0.60;;;8.80;99.90;;;;;;5050772;28;20240;-88
2021/04/07 09:18:41;;;;;;;1.50;1.40;;;8.10;99.90;;;;;;5053008;28;20244;-88
2021/04/07 09:21:15;;;;;;;0.90;0.60;;;7.50;99.90;;;;;;5051824;28;20212;-90
2021/04/07 09:23:48;;;;;;;4.07;1.50;;;7.30;99.90;;;;;;5054734;28;20193;-86
2021/04/07 09:26:19;;;;;;;0.33;0.33;;;7.70;99.90;;;;;;5072427;28;20193;-87
2021/04/07 09:28:47;;;;;;;2.13;1.00;;;7.60;99.90;;;;;;5033735;28;20264;-86
2021/04/07 09:31:16;;;;;;;1.83;0.53;;;7.80;99.90;;;;;;5071846;28;20248;-87
2021/04/07 09:33:45;;;;;;;1.13;1.13;;;7.90;99.90;;;;;;5069878;28;20266;-88
2021/04/07 09:36:12;;;;;;;0.73;0.73;;;7.70;99.90;;;;;;5072921;28;20213;-87
2021/04/07 09:38:46;;;;;;;1.33;0.70;;;7.80;99.90;;;;;;5069781;28;20201;-89
2021/04/07 09:41:25;;;;;;;2.30;1.67;;;8.00;99.90;;;;;;5056459;28;20254;-89
2021/04/07 09:43:52;;;;;;;0.70;0.53;;;7.80;99.90;;;;;;5056184;28;20235;-89
2021/04/07 09:46:18;;;;;;;3.40;1.60;;;7.50;99.90;;;;;;5022305;28;20278;-88
2021/04/07 09:48:59;;;;;;;1.50;1.33;;;7.90;99.90;;;;;;5055365;28;20224;-92
2021/04/07 09:51:33;;;;;;;1.60;1.17;;;7.50;99.90;;;;;;5052518;28;20215;-88
2021/04/07 09:54:44;;;;;;;0.50;0.50;;;7.10;99.90;;;;;;5073892;28;20220;-88
2021/04/07 09:57:11;;;;;;;0.63;0.63;;;6.60;99.90;;;;;;5067463;28;20229;-91
2021/04/07 09:59:43;;;;;;;7.13;0.57;;;6.50;99.90;;;;;;5052499;28;20708;-91
2021/04/07 10:02:29;;;;;;;1.07;0.43;;;6.40;99.90;;;;;;5055804;28;20630;-90
2021/04/07 10:04:56;;;;;;;1.27;0.73;;;6.20;99.90;;;;;;5054737;28;20243;-90
2021/04/07 10:07:27;;;;;;;0.63;0.63;;;6.10;99.90;;;;;;5037504;28;20736;-88
2021/04/07 10:09:54;;;;;;;4.07;0.97;;;5.90;99.90;;;;;;5072504;28;20349;-89
2021/04/07 10:12:22;;;;;;;1.70;0.57;;;6.00;99.90;;;;;;5054300;28;20208;-89
2021/04/07 10:14:56;;;;;;;1.97;1.57;;;6.30;99.90;;;;;;5052699;28;20401;-89
2021/04/07 10:17:26;;;;;;;1.10;0.77;;;6.60;99.90;;;;;;5055146;28;20180;-88
2021/04/07 10:19:52;;;;;;;1.40;0.70;;;6.90;99.90;;;;;;5055065;28;20412;-91
2021/04/07 10:22:26;;;;;;;1.90;1.80;;;7.00;99.90;;;;;;5038639;28;21050;-90
2021/04/07 10:24:57;;;;;;;0.43;0.37;;;7.30;99.90;;;;;;5035919;28;20231;-91
2021/04/07 10:27:24;;;;;;;0.20;0.20;;;6.80;99.90;;;;;;5036036;28;20213;-88
2021/04/07 10:30:11;;;;;;;1.70;0.27;;;5.90;99.90;;;;;;5052378;28;20236;-87
2021/04/07 10:32:47;;;;;;;0.30;0.30;;;5.40;99.90;;;;;;5053623;28;20181;-89
2021/04/07 10:35:26;;;;;;;0.47;0.47;;;5.40;99.90;;;;;;5037818;28;20196;-90
2021/04/07 10:37:58;;;;;;;0.47;0.47;;;5.80;99.90;;;;;;5053682;28;20239;-88
2021/04/07 10:40:26;;;;;;;0.40;0.40;;;6.10;99.90;;;;;;5051972;28;20233;-90
2021/04/07 10:42:52;;;;;;;0.43;0.40;;;6.40;99.90;;;;;;5052268;28;20677;-91
2021/04/07 10:45:20;;;;;;;3.13;0.80;;;6.60;99.90;;;;;;5071592;28;20700;-90
2021/04/07 10:47:46;;;;;;;6.40;0.63;;;6.70;99.90;;;;;;5052890;28;20193;-88
2021/04/07 10:50:13;;;;;;;0.53;0.33;;;7.00;99.90;;;;;;5048841;28;20221;-88
2021/04/07 10:52:41;;;;;;;0.30;0.30;;;7.20;99.90;;;;;;5035097;28;20212;-89
2021/04/07 10:55:21;;;;;;;0.63;0.63;;;7.00;99.90;;;;;;5038663;28;20231;-90
2021/04/07 10:57:48;;;;;;;5.93;2.00;;;7.00;99.90;;;;;;5055612;28;20220;-87
2021/04/07 11:00:38;;;;;;;1.77;1.20;;;7.10;99.90;;;;;;5052609;28;20266;-89
2021/04/07 11:03:06;;;;;;;2.43;0.73;;;7.00;99.90;;;;;;5075069;28;20212;-89
2021/04/07 11:05:43;;;;;;;0.40;0.40;;;7.10;99.90;;;;;;5050365;28;20216;-89
2021/04/07 11:08:11;;;;;;;1.13;1.03;;;7.20;99.90;;;;;;5051551;28;20241;-88
2021/04/07 11:10:39;;;;;;;0.73;0.73;;;7.10;99.90;;;;;;5041322;28;20233;-88
2021/04/07 11:13:06;;;;;;;0.50;0.50;;;7.30;99.90;;;;;;5048325;28;20216;-90
2021/04/07 11:15:32;;;;;;;1.50;0.63;;;7.30;99.90;;;;;;5040474;28;20232;-89
2021/04/07 11:17:58;;;;;;;0.73;0.33;;;7.40;99.90;;;;;;5055295;28;20204;-89
2021/04/07 11:20:26;;;;;;;0.97;0.80;;;7.30;99.90;;;;;;5055380;28;20185;-89
2021/04/07 11:22:51;;;;;;;1.60;1.13;;;7.00;99.90;;;;;;5054106;28;20633;-88
2021/04/07 11:25:19;;;;;;;2.93;1.13;;;6.90;99.90;;;;;;5022322;28;20213;-90
2021/04/07 11:27:45;;;;;;;0.40;0.40;;;7.10;99.90;;;;;;5055583;28;20231;-90
2021/04/07 11:30:11;;;;;;;2.93;0.47;;;7.10;99.90;;;;;;5036398;28;20253;-89
2021/04/07 11:32:43;;;;;;;0.20;0.20;;;7.10;99.90;;;;;;5051868;28;20200;-87
2021/04/07 11:38:02;;;;;;;0.80;0.37;;;6.90;99.90;;;;;;5046472;28;20217;-86
2021/04/07 11:45:24;;;;;;;1.27;0.80;;;4.70;99.90;;;;;;5035712;28;20225;-89
2021/04/07 11:47:50;;;;;;;0.63;0.63;;;4.70;99.90;;;;;;5045055;28;20695;-87
2021/04/07 11:50:16;;;;;;;1.63;1.23;;;5.10;99.90;;;;;;5039429;28;20219;-89
2021/04/07 11:52:42;;;;;;;0.80;0.77;;;5.70;99.90;;;;;;5036787;28;20217;-88
2021/04/07 11:55:08;;;;;;;5.73;1.80;;;6.20;99.90;;;;;;5036890;28;20232;-89
2021/04/07 11:57:34;;;;;;;1.50;0.60;;;6.00;99.90;;;;;;5048422;28;20244;-88
2021/04/07 12:00:00;;;;;;;1.90;1.07;;;5.30;99.90;;;;;;5035210;28;20269;-87
2021/04/07 12:02:26;;;;;;;3.83;1.00;;;5.20;99.90;;;;;;5036926;28;20186;-89
2021/04/07 12:04:52;;;;;;;0.27;0.27;;;5.00;99.90;;;;;;5069265;28;20771;-89
2021/04/07 12:07:18;;;;;;;1.77;0.60;;;5.10;99.90;;;;;;5034257;28;20204;-89
2021/04/07 12:09:44;;;;;;;1.23;0.40;;;5.10;99.90;;;;;;5054223;28;20237;-89
2021/04/07 12:12:10;;;;;;;0.50;0.50;;;5.30;99.90;;;;;;5020068;28;20224;-88
2021/04/07 12:14:36;;;;;;;1.17;1.17;;;5.50;99.90;;;;;;5050346;28;20221;-89
2021/04/07 12:17:02;;;;;;;1.03;0.93;;;5.60;99.90;;;;;;5053984;28;20264;-89
2021/04/07 12:19:28;;;;;;;0.43;0.43;;;6.20;99.90;;;;;;5074997;28;20216;-90
2021/04/07 12:21:54;;;;;;;4.17;0.73;;;6.50;99.90;;;;;;5024646;28;20814;-89
2021/04/07 12:24:20;;;;;;;0.83;0.63;;;6.60;99.90;;;;;;5036671;28;20276;-88
2021/04/07 12:26:46;;;;;;;0.30;0.30;;;6.60;99.90;;;;;;5037433;28;20276;-90
2021/04/07 12:29:12;;;;;;;0.30;0.30;;;6.80;99.90;;;;;;5022411;28;20210;-88
2021/04/07 12:31:38;;;;;;;0.83;0.77;;;6.90;99.90;;;;;;5037580;28;20220;-90
2021/04/07 12:34:04;;;;;;;0.57;0.57;;;7.00;99.90;;;;;;5027642;28;20220;-89
2021/04/07 12:36:31;;;;;;;0.30;0.30;;;7.30;99.90;;;;;;5020734;28;20562;-89
2021/04/07 12:39:00;;;;;;;3.53;0.43;;;7.40;99.90;;;;;;5032894;28;20230;-89
2021/04/07 12:41:47;;;;;;;0.70;0.70;;;7.40;99.90;;;;;;5056571;28;20189;-89
2021/04/07 12:44:13;;;;;;;0.67;0.57;;;6.50;99.90;;;;;;5064412;28;20212;-90
2021/04/07 12:46:39;;;;;;;0.70;0.50;;;5.50;99.90;;;;;;5040136;28;21020;-89
2021/04/07 12:49:05;;;;;;;3.10;2.43;;;5.00;99.90;;;;;;5039037;28;20293;-88
2021/04/07 12:51:30;;;;;;;0.50;0.50;;;4.70;99.90;;;;;;5036476;28;21426;-88
2021/04/07 12:53:57;;;;;;;0.20;0.20;;;4.60;99.90;;;;;;5038193;28;20236;-88
2021/04/07 12:56:24;;;;;;;0.40;0.40;;;4.40;99.90;;;;;;5056668;28;20200;-88
2021/04/07 12:58:50;;;;;;;0.30;0.30;;;4.20;99.90;;;;;;5054692;28;20227;-89
2021/04/07 13:01:18;;;;;;;4.43;1.20;;;4.00;99.90;;;;;;5054128;28;20266;-85
2021/04/07 13:03:43;;;;;;;3.17;0.93;;;3.60;99.90;;;;;;5054494;28;20530;-87
2021/04/07 13:06:09;;;;;;;0.40;0.40;;;3.60;99.90;;;;;;5053285;28;20312;-88
2021/04/07 13:08:35;;;;;;;0.30;0.30;;;3.80;99.90;;;;;;5072521;28;21101;-90
2021/04/07 13:11:02;;;;;;;0.60;0.60;;;4.10;99.90;;;;;;5052567;28;20233;-87
2021/04/07 13:13:27;;;;;;;0.30;0.30;;;4.50;99.90;;;;;;5050321;28;20225;-88